sensor_id;sensor_type;location;lat;lon;timestamp;pressure;altitude;pressure_sealevel;temperature;humidity
63115;BME280;49208;50.874;6.466;2023-07-20T06:02:48;100371.34;;;19.82;76.82
63115;BME280;49208;50.874;6.466;2023-07-20T06:05:13;100366.09;;;20.74;73.20
63115;BME280;49208;50.874;6.466;2023-07-20T06:07:39;100371.22;;;21.45;67.89
63115;BME280;49208;50.874;6.466;2023-07-20T06:10:06;100372.06;;;21.89;65.64
63115;BME280;49208;50.874;6.466;2023-07-20T06:12:31;100371.88;;;22.02;64.01
63115;BME280;49208;50.874;6.466;2023-07-20T06:15:04;100373.91;;;22.20;63.73
63115;BME280;49208;50.874;6.466;2023-07-20T06:17:30;100370.81;;;22.46;62.08
63115;BME280;49208;50.874;6.466;2023-07-20T06:19:56;100375.78;;;22.62;60.88
63115;BME280;49208;50.874;6.466;2023-07-20T06:22:21;100373.25;;;22.49;61.24
63115;BME280;49208;50.874;6.466;2023-07-20T06:24:47;100373.63;;;22.03;62.57
63115;BME280;49208;50.874;6.466;2023-07-20T06:27:12;100375.06;;;21.42;64.17
63115;BME280;49208;50.874;6.466;2023-07-20T06:29:37;100371.97;;;20.79;66.52
63115;BME280;49208;50.874;6.466;2023-07-20T06:32:04;100378.53;;;20.30;69.28
63115;BME280;49208;50.874;6.466;2023-07-20T06:34:29;100384.69;;;19.96;70.31
63115;BME280;49208;50.874;6.466;2023-07-20T06:36:55;100378.19;;;19.75;71.21
63115;BME280;49208;50.874;6.466;2023-07-20T06:39:20;100378.91;;;19.53;72.54
63115;BME280;49208;50.874;6.466;2023-07-20T06:41:47;100386.41;;;19.36;72.63
63115;BME280;49208;50.874;6.466;2023-07-20T06:44:12;100384.22;;;20.03;73.61
63115;BME280;49208;50.874;6.466;2023-07-20T06:46:38;100381.06;;;21.34;68.81
63115;BME280;49208;50.874;6.466;2023-07-20T06:49:06;100385.00;;;22.50;63.63
63115;BME280;49208;50.874;6.466;2023-07-20T06:51:31;100377.88;;;22.79;60.20
63115;BME280;49208;50.874;6.466;2023-07-20T06:53:56;100382.19;;;22.61;60.93
63115;BME280;49208;50.874;6.466;2023-07-20T06:56:22;100385.22;;;22.98;61.17
63115;BME280;49208;50.874;6.466;2023-07-20T06:58:47;100393.69;;;23.96;57.79
63115;BME280;49208;50.874;6.466;2023-07-20T07:01:13;100389.78;;;24.67;55.54
63115;BME280;49208;50.874;6.466;2023-07-20T07:03:38;100393.09;;;24.31;53.52
63115;BME280;49208;50.874;6.466;2023-07-20T07:06:04;100393.59;;;23.57;55.61
63115;BME280;49208;50.874;6.466;2023-07-20T07:08:29;100392.16;;;22.82;58.11
63115;BME280;49208;50.874;6.466;2023-07-20T07:10:55;100396.97;;;22.15;59.46
63115;BME280;49208;50.874;6.466;2023-07-20T07:13:20;100400.50;;;21.39;62.08
63115;BME280;49208;50.874;6.466;2023-07-20T07:15:45;100396.34;;;21.47;63.38
63115;BME280;49208;50.874;6.466;2023-07-20T07:18:11;100393.78;;;22.42;60.58
63115;BME280;49208;50.874;6.466;2023-07-20T07:20:37;100402.38;;;23.80;57.56
63115;BME280;49208;50.874;6.466;2023-07-20T07:23:02;100393.78;;;25.10;53.96
63115;BME280;49208;50.874;6.466;2023-07-20T07:25:28;100394.59;;;25.30;51.14
63115;BME280;49208;50.874;6.466;2023-07-20T07:27:54;100393.00;;;25.55;49.77
63115;BME280;49208;50.874;6.466;2023-07-20T07:30:20;100392.75;;;26.30;51.26
63115;BME280;49208;50.874;6.466;2023-07-20T07:32:46;100391.94;;;27.16;47.28
63115;BME280;49208;50.874;6.466;2023-07-20T07:35:11;100396.19;;;27.87;45.15
63115;BME280;49208;50.874;6.466;2023-07-20T07:37:37;100394.81;;;28.49;43.64
63115;BME280;49208;50.874;6.466;2023-07-20T07:40:03;100405.03;;;29.04;41.44
63115;BME280;49208;50.874;6.466;2023-07-20T07:42:29;100399.19;;;29.15;40.37
63115;BME280;49208;50.874;6.466;2023-07-20T07:44:54;100399.09;;;28.76;39.38
63115;BME280;49208;50.874;6.466;2023-07-20T07:47:20;100405.78;;;28.40;40.41
63115;BME280;49208;50.874;6.466;2023-07-20T07:49:45;100399.47;;;28.65;41.51
63115;BME280;49208;50.874;6.466;2023-07-20T07:52:11;100410.84;;;29.17;40.48
63115;BME280;49208;50.874;6.466;2023-07-20T07:54:36;100404.13;;;29.68;39.36
63115;BME280;49208;50.874;6.466;2023-07-20T07:57:01;100403.72;;;30.02;38.94
63115;BME280;49208;50.874;6.466;2023-07-20T07:59:27;100413.56;;;29.17;38.88
63115;BME280;49208;50.874;6.466;2023-07-20T08:01:52;100415.00;;;27.98;40.72
63115;BME280;49208;50.874;6.466;2023-07-20T08:04:18;100413.38;;;26.68;43.46
63115;BME280;49208;50.874;6.466;2023-07-20T08:06:44;100413.13;;;25.44;45.92
63115;BME280;49208;50.874;6.466;2023-07-20T08:09:09;100424.31;;;24.56;46.42
63115;BME280;49208;50.874;6.466;2023-07-20T08:11:35;100415.75;;;24.51;49.75
63115;BME280;49208;50.874;6.466;2023-07-20T08:14:00;100415.44;;;25.11;49.09
63115;BME280;49208;50.874;6.466;2023-07-20T08:16:26;100413.00;;;25.73;47.93
63115;BME280;49208;50.874;6.466;2023-07-20T08:18:51;100403.81;;;26.46;47.33
63115;BME280;49208;50.874;6.466;2023-07-20T08:21:17;100410.94;;;26.91;45.65
63115;BME280;49208;50.874;6.466;2023-07-20T08:23:42;100419.28;;;27.42;44.43
63115;BME280;49208;50.874;6.466;2023-07-20T08:26:08;100409.81;;;27.28;43.09
63115;BME280;49208;50.874;6.466;2023-07-20T08:28:34;100422.72;;;26.48;43.47
63115;BME280;49208;50.874;6.466;2023-07-20T08:30:59;100422.16;;;25.72;45.43
63115;BME280;49208;50.874;6.466;2023-07-20T08:33:25;100418.75;;;25.05;46.57
63115;BME280;49208;50.874;6.466;2023-07-20T08:35:50;100411.69;;;24.65;47.34
63115;BME280;49208;50.874;6.466;2023-07-20T08:38:15;100425.72;;;24.80;47.29
63115;BME280;49208;50.874;6.466;2023-07-20T08:40:43;100415.13;;;25.14;46.75
63115;BME280;49208;50.874;6.466;2023-07-20T08:43:10;100410.38;;;25.54;44.53
63115;BME280;49208;50.874;6.466;2023-07-20T08:45:39;100407.09;;;25.96;43.03
63115;BME280;49208;50.874;6.466;2023-07-20T08:48:06;100404.44;;;26.22;44.93
63115;BME280;49208;50.874;6.466;2023-07-20T08:50:32;100407.03;;;26.24;43.65
63115;BME280;49208;50.874;6.466;2023-07-20T08:52:58;100407.72;;;25.62;43.17
63115;BME280;49208;50.874;6.466;2023-07-20T08:55:25;100407.09;;;25.13;42.99
63115;BME280;49208;50.874;6.466;2023-07-20T08:57:53;100406.66;;;25.17;44.58
63115;BME280;49208;50.874;6.466;2023-07-20T09:00:20;100411.72;;;25.40;46.39
63115;BME280;49208;50.874;6.466;2023-07-20T09:02:46;100406.19;;;25.59;46.01
63115;BME280;49208;50.874;6.466;2023-07-20T09:05:12;100410.59;;;25.43;46.18
63115;BME280;49208;50.874;6.466;2023-07-20T09:07:40;100411.81;;;25.20;45.94
63115;BME280;49208;50.874;6.466;2023-07-20T09:10:06;100419.63;;;24.96;46.17
63115;BME280;49208;50.874;6.466;2023-07-20T09:12:35;100414.41;;;25.22;45.98
63115;BME280;49208;50.874;6.466;2023-07-20T09:15:01;100416.31;;;25.67;45.60
63115;BME280;49208;50.874;6.466;2023-07-20T09:17:26;100412.00;;;26.10;44.22
63115;BME280;49208;50.874;6.466;2023-07-20T09:19:52;100413.56;;;26.31;43.42
63115;BME280;49208;50.874;6.466;2023-07-20T09:22:17;100406.28;;;26.57;43.38
63115;BME280;49208;50.874;6.466;2023-07-20T09:24:43;100405.50;;;26.65;42.53
63115;BME280;49208;50.874;6.466;2023-07-20T09:27:09;100392.69;;;26.66;40.64
63115;BME280;49208;50.874;6.466;2023-07-20T09:29:50;100399.50;;;26.44;42.51
63115;BME280;49208;50.874;6.466;2023-07-20T09:32:20;100401.41;;;25.89;42.62
63115;BME280;49208;50.874;6.466;2023-07-20T09:34:46;100404.19;;;25.34;43.17
63115;BME280;49208;50.874;6.466;2023-07-20T09:37:12;100401.28;;;24.98;44.77
63115;BME280;49208;50.874;6.466;2023-07-20T09:39:44;100397.91;;;24.76;44.49
63115;BME280;49208;50.874;6.466;2023-07-20T09:42:11;100402.19;;;24.79;43.85
63115;BME280;49208;50.874;6.466;2023-07-20T09:44:38;100411.28;;;24.70;45.01
63115;BME280;49208;50.874;6.466;2023-07-20T09:47:04;100400.22;;;24.71;44.28
63115;BME280;49208;50.874;6.466;2023-07-20T09:49:29;100406.41;;;24.64;45.28
63115;BME280;49208;50.874;6.466;2023-07-20T09:51:55;100408.00;;;24.47;45.56
63115;BME280;49208;50.874;6.466;2023-07-20T09:54:21;100408.13;;;24.55;46.23
63115;BME280;49208;50.874;6.466;2023-07-20T09:56:48;100398.06;;;24.75;46.49
63115;BME280;49208;50.874;6.466;2023-07-20T09:59:14;100404.91;;;24.89;45.50
63115;BME280;49208;50.874;6.466;2023-07-20T10:01:41;100403.75;;;24.91;45.75
63115;BME280;49208;50.874;6.466;2023-07-20T10:04:09;100411.66;;;24.85;45.16
63115;BME280;49208;50.874;6.466;2023-07-20T10:06:39;100399.34;;;24.80;46.01
63115;BME280;49208;50.874;6.466;2023-07-20T10:09:07;100409.00;;;25.02;46.18
63115;BME280;49208;50.874;6.466;2023-07-20T10:11:36;100399.94;;;25.22;45.95
63115;BME280;49208;50.874;6.466;2023-07-20T10:14:04;100403.16;;;25.35;45.74
63115;BME280;49208;50.874;6.466;2023-07-20T10:16:34;100394.25;;;25.60;46.37
63115;BME280;49208;50.874;6.466;2023-07-20T10:19:27;100399.47;;;25.99;44.92
63115;BME280;49208;50.874;6.466;2023-07-20T10:22:14;100399.53;;;25.90;43.14
63115;BME280;49208;50.874;6.466;2023-07-20T10:24:44;100396.03;;;25.52;42.27
63115;BME280;49208;50.874;6.466;2023-07-20T10:27:10;100395.53;;;25.38;42.04
63115;BME280;49208;50.874;6.466;2023-07-20T10:29:36;100396.38;;;25.11;42.99
63115;BME280;49208;50.874;6.466;2023-07-20T10:32:02;100403.25;;;25.06;43.71
63115;BME280;49208;50.874;6.466;2023-07-20T10:34:31;100390.59;;;24.87;44.51
63115;BME280;49208;50.874;6.466;2023-07-20T10:36:57;100389.03;;;24.84;44.75
63115;BME280;49208;50.874;6.466;2023-07-20T10:39:24;100386.56;;;24.91;44.11
63115;BME280;49208;50.874;6.466;2023-07-20T10:41:50;100387.22;;;25.02;44.69
63115;BME280;49208;50.874;6.466;2023-07-20T10:44:24;100377.56;;;25.18;44.35
63115;BME280;49208;50.874;6.466;2023-07-20T10:46:49;100373.66;;;25.30;44.61
63115;BME280;49208;50.874;6.466;2023-07-20T10:49:15;100373.97;;;25.45;43.41
63115;BME280;49208;50.874;6.466;2023-07-20T10:51:48;100368.25;;;25.66;43.00
63115;BME280;49208;50.874;6.466;2023-07-20T10:56:48;100357.81;;;25.61;41.80
63115;BME280;49208;50.874;6.466;2023-07-20T10:59:35;100362.25;;;25.63;41.47
63115;BME280;49208;50.874;6.466;2023-07-20T11:02:06;100366.47;;;25.57;42.27
63115;BME280;49208;50.874;6.466;2023-07-20T11:04:42;100372.44;;;25.43;42.51
63115;BME280;49208;50.874;6.466;2023-07-20T11:07:08;100361.84;;;25.57;42.30
63115;BME280;49208;50.874;6.466;2023-07-20T11:09:35;100363.34;;;25.70;41.21
63115;BME280;49208;50.874;6.466;2023-07-20T11:12:14;100365.19;;;25.97;39.81
63115;BME280;49208;50.874;6.466;2023-07-20T11:14:41;100363.78;;;26.37;38.82
63115;BME280;49208;50.874;6.466;2023-07-20T11:17:13;100369.06;;;26.83;38.55
63115;BME280;49208;50.874;6.466;2023-07-20T11:19:39;100355.50;;;27.25;35.12
63115;BME280;49208;50.874;6.466;2023-07-20T11:22:08;100353.03;;;27.56;35.73
63115;BME280;49208;50.874;6.466;2023-07-20T11:24:34;100360.72;;;27.61;36.02
63115;BME280;49208;50.874;6.466;2023-07-20T11:27:00;100355.00;;;27.38;35.89
63115;BME280;49208;50.874;6.466;2023-07-20T11:29:26;100357.47;;;27.15;36.53
63115;BME280;49208;50.874;6.466;2023-07-20T11:31:52;100353.75;;;27.24;38.45
63115;BME280;49208;50.874;6.466;2023-07-20T11:34:21;100351.47;;;27.11;37.31
63115;BME280;49208;50.874;6.466;2023-07-20T11:36:50;100346.72;;;27.21;37.77
63115;BME280;49208;50.874;6.466;2023-07-20T11:39:18;100352.34;;;27.20;37.03
63115;BME280;49208;50.874;6.466;2023-07-20T11:44:13;100349.38;;;26.71;37.93
63115;BME280;49208;50.874;6.466;2023-07-20T11:46:41;100344.19;;;26.59;37.64
63115;BME280;49208;50.874;6.466;2023-07-20T11:49:08;100342.66;;;26.57;38.11
63115;BME280;49208;50.874;6.466;2023-07-20T11:51:34;100348.22;;;26.73;39.37
63115;BME280;49208;50.874;6.466;2023-07-20T11:54:01;100348.88;;;27.10;38.36
63115;BME280;49208;50.874;6.466;2023-07-20T11:56:27;100342.53;;;27.35;38.09
63115;BME280;49208;50.874;6.466;2023-07-20T11:58:57;100341.03;;;27.49;37.74
63115;BME280;49208;50.874;6.466;2023-07-20T12:01:26;100342.41;;;27.53;36.79
63115;BME280;49208;50.874;6.466;2023-07-20T12:03:59;100338.94;;;27.43;37.68
63115;BME280;49208;50.874;6.466;2023-07-20T12:06:25;100337.84;;;27.19;37.20
63115;BME280;49208;50.874;6.466;2023-07-20T12:08:55;100334.81;;;26.88;36.74
63115;BME280;49208;50.874;6.466;2023-07-20T12:11:37;100334.31;;;26.58;37.01
63115;BME280;49208;50.874;6.466;2023-07-20T12:14:07;100338.22;;;26.38;38.24
63115;BME280;49208;50.874;6.466;2023-07-20T12:16:34;100334.84;;;26.18;37.83
63115;BME280;49208;50.874;6.466;2023-07-20T12:19:18;100340.00;;;26.03;39.01
63115;BME280;49208;50.874;6.466;2023-07-20T12:21:43;100334.84;;;25.82;38.72
63115;BME280;49208;50.874;6.466;2023-07-20T12:24:10;100328.69;;;25.62;39.54
63115;BME280;49208;50.874;6.466;2023-07-20T12:26:36;100330.22;;;25.47;39.60
63115;BME280;49208;50.874;6.466;2023-07-20T12:29:02;100321.88;;;25.48;40.21
63115;BME280;49208;50.874;6.466;2023-07-20T12:31:28;100325.50;;;25.49;40.11
63115;BME280;49208;50.874;6.466;2023-07-20T12:33:55;100327.78;;;25.26;40.35
63115;BME280;49208;50.874;6.466;2023-07-20T12:36:21;100324.16;;;24.97;40.66
63115;BME280;49208;50.874;6.466;2023-07-20T12:38:47;100333.03;;;24.72;40.97
63115;BME280;49208;50.874;6.466;2023-07-20T12:41:13;100329.81;;;24.39;41.38
63115;BME280;49208;50.874;6.466;2023-07-20T12:43:43;100333.56;;;24.18;41.67
63115;BME280;49208;50.874;6.466;2023-07-20T12:46:11;100332.00;;;24.06;40.89
63115;BME280;49208;50.874;6.466;2023-07-20T12:48:37;100333.59;;;23.89;40.89
63115;BME280;49208;50.874;6.466;2023-07-20T12:51:04;100332.97;;;23.76;40.70
63115;BME280;49208;50.874;6.466;2023-07-20T12:53:31;100335.69;;;23.66;41.38
63115;BME280;49208;50.874;6.466;2023-07-20T12:55:56;100332.41;;;23.63;42.46
63115;BME280;49208;50.874;6.466;2023-07-20T12:58:21;100327.97;;;23.62;42.31
63115;BME280;49208;50.874;6.466;2023-07-20T13:00:47;100323.09;;;23.65;42.25
63115;BME280;49208;50.874;6.466;2023-07-20T13:03:12;100324.44;;;23.80;42.66
63115;BME280;49208;50.874;6.466;2023-07-20T13:05:38;100321.53;;;24.11;43.13
63115;BME280;49208;50.874;6.466;2023-07-20T13:08:04;100321.91;;;24.55;42.53
63115;BME280;49208;50.874;6.466;2023-07-20T13:10:31;100311.16;;;24.91;42.60
63115;BME280;49208;50.874;6.466;2023-07-20T13:12:56;100313.78;;;25.11;40.32
63115;BME280;49208;50.874;6.466;2023-07-20T13:15:24;100307.00;;;25.15;40.20
63115;BME280;49208;50.874;6.466;2023-07-20T13:17:54;100303.56;;;25.23;39.47
63115;BME280;49208;50.874;6.466;2023-07-20T13:20:19;100303.75;;;25.39;39.25
63115;BME280;49208;50.874;6.466;2023-07-20T13:22:44;100297.13;;;25.14;39.18
63115;BME280;49208;50.874;6.466;2023-07-20T13:25:10;100299.75;;;25.06;39.80
63115;BME280;49208;50.874;6.466;2023-07-20T13:27:35;100306.19;;;24.87;39.96
63115;BME280;49208;50.874;6.466;2023-07-20T13:30:02;100298.19;;;24.75;40.78
63115;BME280;49208;50.874;6.466;2023-07-20T13:32:31;100297.38;;;24.65;40.69
63115;BME280;49208;50.874;6.466;2023-07-20T13:34:57;100290.25;;;24.54;40.57
63115;BME280;49208;50.874;6.466;2023-07-20T13:37:22;100290.56;;;24.51;40.75
63115;BME280;49208;50.874;6.466;2023-07-20T13:39:48;100281.81;;;24.85;40.73
63115;BME280;49208;50.874;6.466;2023-07-20T13:42:13;100281.50;;;25.16;39.69
63115;BME280;49208;50.874;6.466;2023-07-20T13:44:39;100273.47;;;25.60;39.90
63115;BME280;49208;50.874;6.466;2023-07-20T13:47:04;100270.78;;;26.04;38.99
63115;BME280;49208;50.874;6.466;2023-07-20T13:49:32;100273.84;;;26.27;38.35
63115;BME280;49208;50.874;6.466;2023-07-20T13:51:58;100271.78;;;26.55;37.82
63115;BME280;49208;50.874;6.466;2023-07-20T13:54:24;100271.72;;;26.65;36.02
63115;BME280;49208;50.874;6.466;2023-07-20T13:56:49;100274.09;;;26.68;35.37
63115;BME280;49208;50.874;6.466;2023-07-20T13:59:15;100269.00;;;26.47;35.30
63115;BME280;49208;50.874;6.466;2023-07-20T14:01:40;100260.91;;;26.03;36.24
63115;BME280;49208;50.874;6.466;2023-07-20T14:04:06;100255.91;;;25.63;36.98
63115;BME280;49208;50.874;6.466;2023-07-20T14:06:32;100257.56;;;25.55;36.86
63115;BME280;49208;50.874;6.466;2023-07-20T14:08:59;100258.13;;;25.59;35.63
63115;BME280;49208;50.874;6.466;2023-07-20T14:11:24;100247.66;;;25.54;35.86
63115;BME280;49208;50.874;6.466;2023-07-20T14:13:51;100244.03;;;25.28;36.01
63115;BME280;49208;50.874;6.466;2023-07-20T14:16:18;100248.31;;;25.30;36.89
63115;BME280;49208;50.874;6.466;2023-07-20T14:18:43;100241.59;;;25.25;36.79
63115;BME280;49208;50.874;6.466;2023-07-20T14:21:12;100241.00;;;25.03;37.94
63115;BME280;49208;50.874;6.466;2023-07-20T14:23:38;100239.78;;;25.15;37.88
63115;BME280;49208;50.874;6.466;2023-07-20T14:26:03;100240.13;;;25.30;37.03
63115;BME280;49208;50.874;6.466;2023-07-20T14:28:30;100232.91;;;25.39;36.96
63115;BME280;49208;50.874;6.466;2023-07-20T14:30:55;100233.19;;;25.54;36.91
63115;BME280;49208;50.874;6.466;2023-07-20T14:33:21;100236.78;;;25.54;36.71
63115;BME280;49208;50.874;6.466;2023-07-20T14:35:47;100231.72;;;25.59;34.60
63115;BME280;49208;50.874;6.466;2023-07-20T14:38:12;100229.81;;;25.78;35.83
63115;BME280;49208;50.874;6.466;2023-07-20T14:40:38;100229.22;;;26.10;34.80
63115;BME280;49208;50.874;6.466;2023-07-20T14:43:03;100235.06;;;26.15;34.69
63115;BME280;49208;50.874;6.466;2023-07-20T14:45:28;100233.13;;;26.08;34.43
63115;BME280;49208;50.874;6.466;2023-07-20T14:47:54;100234.78;;;25.83;35.10
63115;BME280;49208;50.874;6.466;2023-07-20T14:50:20;100223.13;;;25.72;34.72
63115;BME280;49208;50.874;6.466;2023-07-20T14:52:46;100226.81;;;25.63;34.88
63115;BME280;49208;50.874;6.466;2023-07-20T14:55:11;100214.13;;;25.54;35.76
63115;BME280;49208;50.874;6.466;2023-07-20T14:57:36;100215.16;;;25.53;35.18
63115;BME280;49208;50.874;6.466;2023-07-20T15:00:03;100210.06;;;25.58;34.20
63115;BME280;49208;50.874;6.466;2023-07-20T15:02:33;100210.19;;;25.74;33.81
63115;BME280;49208;50.874;6.466;2023-07-20T15:04:58;100203.16;;;25.90;34.33
63115;BME280;49208;50.874;6.466;2023-07-20T15:07:24;100205.25;;;25.96;33.98
63115;BME280;49208;50.874;6.466;2023-07-20T15:09:50;100195.53;;;25.93;34.61
63115;BME280;49208;50.874;6.466;2023-07-20T15:12:15;100205.81;;;25.81;34.24
63115;BME280;49208;50.874;6.466;2023-07-20T15:14:42;100197.41;;;25.75;34.78
63115;BME280;49208;50.874;6.466;2023-07-20T15:17:08;100192.88;;;25.84;34.53
63115;BME280;49208;50.874;6.466;2023-07-20T15:19:33;100192.38;;;26.06;34.88
63115;BME280;49208;50.874;6.466;2023-07-20T15:22:02;100189.44;;;26.26;34.24
63115;BME280;49208;50.874;6.466;2023-07-20T15:24:28;100191.31;;;26.33;33.57
63115;BME280;49208;50.874;6.466;2023-07-20T15:26:54;100189.31;;;26.44;33.35
63115;BME280;49208;50.874;6.466;2023-07-20T15:29:19;100184.50;;;26.37;33.50
63115;BME280;49208;50.874;6.466;2023-07-20T15:31:46;100173.09;;;26.34;33.76
63115;BME280;49208;50.874;6.466;2023-07-20T15:34:11;100174.41;;;26.21;32.92
63115;BME280;49208;50.874;6.466;2023-07-20T15:36:39;100166.69;;;26.17;33.03
63115;BME280;49208;50.874;6.466;2023-07-20T15:39:05;100167.56;;;26.17;33.22
63115;BME280;49208;50.874;6.466;2023-07-20T15:41:31;100162.19;;;26.08;34.20
63115;BME280;49208;50.874;6.466;2023-07-20T15:43:56;100159.47;;;26.08;34.53
63115;BME280;49208;50.874;6.466;2023-07-20T15:46:51;100164.88;;;25.99;34.46
63115;BME280;49208;50.874;6.466;2023-07-20T15:49:16;100163.41;;;25.87;34.20
63115;BME280;49208;50.874;6.466;2023-07-20T15:51:42;100151.25;;;25.73;35.54
63115;BME280;49208;50.874;6.466;2023-07-20T15:54:09;100151.59;;;25.78;34.76
63115;BME280;49208;50.874;6.466;2023-07-20T15:56:36;100158.53;;;25.73;35.52
63115;BME280;49208;50.874;6.466;2023-07-20T15:59:02;100154.06;;;25.64;35.76
63115;BME280;49208;50.874;6.466;2023-07-20T16:01:27;100153.38;;;25.44;35.48
63115;BME280;49208;50.874;6.466;2023-07-20T16:03:54;100152.91;;;25.12;36.36
63115;BME280;49208;50.874;6.466;2023-07-20T16:06:20;100151.91;;;24.95;36.73
63115;BME280;49208;50.874;6.466;2023-07-20T16:08:45;100156.56;;;24.85;37.00
63115;BME280;49208;50.874;6.466;2023-07-20T16:11:11;100156.56;;;24.85;37.13
63115;BME280;49208;50.874;6.466;2023-07-20T16:13:36;100158.44;;;25.02;36.61
63115;BME280;49208;50.874;6.466;2023-07-20T16:16:02;100161.31;;;25.19;36.44
63115;BME280;49208;50.874;6.466;2023-07-20T16:18:28;100154.50;;;25.33;35.70
63115;BME280;49208;50.874;6.466;2023-07-20T16:20:55;100151.06;;;25.31;36.10
63115;BME280;49208;50.874;6.466;2023-07-20T16:23:21;100146.41;;;25.23;35.90
63115;BME280;49208;50.874;6.466;2023-07-20T16:25:46;100137.81;;;25.18;36.37
63115;BME280;49208;50.874;6.466;2023-07-20T16:28:12;100149.28;;;25.04;35.13
63115;BME280;49208;50.874;6.466;2023-07-20T16:30:37;100137.22;;;24.88;34.96
63115;BME280;49208;50.874;6.466;2023-07-20T16:33:02;100142.34;;;24.91;35.52
63115;BME280;49208;50.874;6.466;2023-07-20T16:35:29;100134.16;;;24.73;35.67
63115;BME280;49208;50.874;6.466;2023-07-20T16:37:57;100134.47;;;24.70;35.95
63115;BME280;49208;50.874;6.466;2023-07-20T16:40:23;100125.84;;;24.75;35.97
63115;BME280;49208;50.874;6.466;2023-07-20T16:42:49;100127.56;;;24.76;36.82
63115;BME280;49208;50.874;6.466;2023-07-20T16:45:14;100130.50;;;24.83;36.73
63115;BME280;49208;50.874;6.466;2023-07-20T16:47:40;100126.31;;;24.88;37.09
63115;BME280;49208;50.874;6.466;2023-07-20T16:50:06;100124.81;;;24.94;36.79
63115;BME280;49208;50.874;6.466;2023-07-20T16:52:31;100124.81;;;24.94;36.59
63115;BME280;49208;50.874;6.466;2023-07-20T16:54:56;100125.06;;;24.83;36.56
63115;BME280;49208;50.874;6.466;2023-07-20T16:57:22;100133.66;;;24.60;36.15
63115;BME280;49208;50.874;6.466;2023-07-20T16:59:47;100136.78;;;24.37;36.84
63115;BME280;49208;50.874;6.466;2023-07-20T17:02:14;100140.00;;;24.23;37.94
63115;BME280;49208;50.874;6.466;2023-07-20T17:04:39;100136.22;;;24.06;38.29
63115;BME280;49208;50.874;6.466;2023-07-20T17:07:05;100131.56;;;23.89;38.80
63115;BME280;49208;50.874;6.466;2023-07-20T17:09:31;100134.00;;;23.82;38.75
63115;BME280;49208;50.874;6.466;2023-07-20T17:11:57;100123.69;;;23.76;38.31
63115;BME280;49208;50.874;6.466;2023-07-20T17:14:23;100128.00;;;23.69;38.23
63115;BME280;49208;50.874;6.466;2023-07-20T17:16:48;100118.44;;;23.55;38.49
63115;BME280;49208;50.874;6.466;2023-07-20T17:19:14;100120.19;;;23.46;38.91
63115;BME280;49208;50.874;6.466;2023-07-20T17:21:40;100122.06;;;23.36;38.62
63115;BME280;49208;50.874;6.466;2023-07-20T17:24:06;100122.38;;;23.23;39.18
63115;BME280;49208;50.874;6.466;2023-07-20T17:26:31;100125.06;;;23.13;39.41
63115;BME280;49208;50.874;6.466;2023-07-20T17:28:56;100121.38;;;23.05;39.67
63115;BME280;49208;50.874;6.466;2023-07-20T17:31:23;100126.50;;;22.98;39.77
63115;BME280;49208;50.874;6.466;2023-07-20T17:33:53;100129.91;;;22.90;40.17
63115;BME280;49208;50.874;6.466;2023-07-20T17:36:18;100122.78;;;22.89;40.29
63115;BME280;49208;50.874;6.466;2023-07-20T17:38:44;100127.31;;;22.89;39.98
63115;BME280;49208;50.874;6.466;2023-07-20T17:41:10;100120.19;;;22.88;40.47
63115;BME280;49208;50.874;6.466;2023-07-20T17:43:35;100121.47;;;22.84;39.96
63115;BME280;49208;50.874;6.466;2023-07-20T17:46:01;100117.03;;;22.83;40.28
63115;BME280;49208;50.874;6.466;2023-07-20T17:48:26;100114.19;;;22.84;39.90
63115;BME280;49208;50.874;6.466;2023-07-20T17:50:54;100109.47;;;22.86;39.99
63115;BME280;49208;50.874;6.466;2023-07-20T17:53:20;100110.31;;;22.87;40.13
63115;BME280;49208;50.874;6.466;2023-07-20T17:55:45;100103.47;;;22.83;39.58
63115;BME280;49208;50.874;6.466;2023-07-20T17:58:11;100111.19;;;22.77;39.66
63115;BME280;49208;50.874;6.466;2023-07-20T18:00:36;100113.19;;;22.75;39.53
63115;BME280;49208;50.874;6.466;2023-07-20T18:03:02;100111.34;;;22.66;39.49
63115;BME280;49208;50.874;6.466;2023-07-20T18:05:27;100115.59;;;22.59;39.18
63115;BME280;49208;50.874;6.466;2023-07-20T18:07:53;100111.88;;;22.50;39.40
63115;BME280;49208;50.874;6.466;2023-07-20T18:10:19;100106.28;;;22.42;39.14
63115;BME280;49208;50.874;6.466;2023-07-20T18:12:45;100114.38;;;22.32;39.80
63115;BME280;49208;50.874;6.466;2023-07-20T18:15:10;100114.34;;;22.23;40.22
63115;BME280;49208;50.874;6.466;2023-07-20T18:17:36;100117.72;;;22.15;40.57
63115;BME280;49208;50.874;6.466;2023-07-20T18:20:03;100106.00;;;22.05;41.27
63115;BME280;49208;50.874;6.466;2023-07-20T18:22:29;100109.38;;;21.97;40.86
63115;BME280;49208;50.874;6.466;2023-07-20T18:24:55;100104.63;;;21.89;41.37
63115;BME280;49208;50.874;6.466;2023-07-20T18:27:20;100102.34;;;21.85;41.75
63115;BME280;49208;50.874;6.466;2023-07-20T18:29:46;100096.59;;;21.78;41.92
63115;BME280;49208;50.874;6.466;2023-07-20T18:32:11;100106.13;;;21.72;42.26
63115;BME280;49208;50.874;6.466;2023-07-20T18:34:37;100102.97;;;21.67;42.24
63115;BME280;49208;50.874;6.466;2023-07-20T18:37:02;100108.81;;;21.63;42.38
63115;BME280;49208;50.874;6.466;2023-07-20T18:39:29;100112.91;;;21.57;42.13
63115;BME280;49208;50.874;6.466;2023-07-20T18:41:56;100110.44;;;21.54;42.25
63115;BME280;49208;50.874;6.466;2023-07-20T18:44:21;100110.00;;;21.49;42.14
63115;BME280;49208;50.874;6.466;2023-07-20T18:46:47;100111.38;;;21.43;42.20
63115;BME280;49208;50.874;6.466;2023-07-20T18:49:12;100108.06;;;21.39;42.23
63115;BME280;49208;50.874;6.466;2023-07-20T18:51:38;100111.28;;;21.33;42.55
63115;BME280;49208;50.874;6.466;2023-07-20T18:54:03;100109.13;;;21.27;42.62